Time;durP1;ratioP1;P1;durP2;ratioP2;P2;SDS_P1;SDS_P2;PMS_P1;PMS_P2;Temp;Humidity;BMP_temperature;BMP_pressure;BME280_temperature;BME280_humidity;BME280_pressure;Samples;Min_cycle;Max_cycle;Signal;HPM_P1;HPM_P2
2020/12/11 00:00:23;;;;;;;23.57;13.50;;;;;;;-0.13;75.16;100896.17;1834721;77;21108;-69
2020/12/11 00:02:52;;;;;;;20.92;12.20;;;;;;;-0.18;75.17;100893.71;1845999;77;21524;-68
2020/12/11 00:05:20;;;;;;;24.57;14.03;;;;;;;-0.20;75.20;100892.88;1844079;77;21161;-71
2020/12/11 00:07:49;;;;;;;25.08;13.53;;;;;;;-0.20;75.20;100894.17;1831652;77;22061;-68
2020/12/11 00:10:18;;;;;;;21.50;12.45;;;;;;;-0.21;75.18;100892.47;1817521;78;21114;-68
2020/12/11 00:12:50;;;;;;;21.87;11.22;;;;;;;-0.23;75.17;100892.12;1824917;77;21054;-68
2020/12/11 00:15:20;;;;;;;21.60;11.68;;;;;;;-0.24;75.14;100896.46;1812453;78;21165;-68
2020/12/11 00:17:49;;;;;;;16.75;11.28;;;;;;;-0.24;75.12;100890.42;1816903;78;21129;-68
2020/12/11 00:20:17;;;;;;;19.42;11.55;;;;;;;-0.25;75.10;100892.61;1824005;78;24141;-68
2020/12/11 00:22:46;;;;;;;18.85;11.63;;;;;;;-0.27;75.12;100888.77;1822384;78;21498;-68
2020/12/11 00:25:14;;;;;;;18.90;11.57;;;;;;;-0.29;75.13;100890.52;1814478;78;21074;-68
2020/12/11 00:27:42;;;;;;;22.30;12.75;;;;;;;-0.31;75.12;100893.16;1825938;78;21129;-68
2020/12/11 00:30:10;;;;;;;17.60;10.55;;;;;;;-0.31;75.11;100889.27;1816926;78;21528;-68
2020/12/11 00:32:39;;;;;;;23.90;12.88;;;;;;;-0.31;75.10;100885.83;1805744;78;24155;-68
2020/12/11 00:35:07;;;;;;;19.52;11.55;;;;;;;-0.33;75.07;100882.42;1817799;79;21058;-69
2020/12/11 00:37:35;;;;;;;22.60;13.25;;;;;;;-0.32;75.08;100882.83;1794481;78;21070;-68
2020/12/11 00:40:04;;;;;;;20.32;11.43;;;;;;;-0.33;75.04;100883.72;1807991;78;21108;-68
2020/12/11 00:42:32;;;;;;;18.07;10.35;;;;;;;-0.34;75.00;100881.58;1825747;77;21097;-68
2020/12/11 00:45:00;;;;;;;18.95;11.22;;;;;;;-0.35;75.01;100879.88;1813893;78;21898;-69
2020/12/11 00:47:27;;;;;;;20.02;11.63;;;;;;;-0.35;75.01;100881.63;1776309;78;21113;-68
2020/12/11 00:49:56;;;;;;;20.32;11.10;;;;;;;-0.38;74.97;100878.67;1820424;78;21062;-68
2020/12/11 00:52:25;;;;;;;17.75;10.38;;;;;;;-0.38;74.95;100884.31;1814158;78;21085;-69
2020/12/11 00:54:53;;;;;;;20.52;11.10;;;;;;;-0.40;74.94;100876.53;1817749;78;21097;-68
2020/12/11 00:57:21;;;;;;;18.45;11.20;;;;;;;-0.41;74.91;100870.94;1819118;77;22063;-68
2020/12/11 00:59:49;;;;;;;18.62;10.53;;;;;;;-0.42;74.94;100877.03;1816891;78;21141;-68
2020/12/11 01:02:17;;;;;;;19.37;11.22;;;;;;;-0.43;74.93;100882.27;1823004;78;21472;-68
2020/12/11 01:04:45;;;;;;;18.48;9.93;;;;;;;-0.44;74.91;100881.86;1799877;78;21063;-68
2020/12/11 01:07:14;;;;;;;22.22;11.95;;;;;;;-0.45;74.88;100875.82;1767808;78;21114;-68
2020/12/11 01:09:44;;;;;;;18.40;10.55;;;;;;;-0.46;74.90;100883.20;1789544;79;21081;-68
2020/12/11 01:12:12;;;;;;;17.37;9.35;;;;;;;-0.47;74.92;100879.36;1797483;79;21208;-68
2020/12/11 01:14:39;;;;;;;16.62;9.93;;;;;;;-0.48;74.94;100872.44;1786965;79;21070;-68
2020/12/11 01:17:07;;;;;;;19.55;11.73;;;;;;;-0.49;74.98;100865.55;1778630;79;21087;-68
2020/12/11 01:19:35;;;;;;;17.15;10.58;;;;;;;-0.52;75.00;100874.27;1769360;80;21079;-68
2020/12/11 01:22:04;;;;;;;16.77;9.83;;;;;;;-0.51;74.99;100873.82;1801341;79;21949;-68
2020/12/11 01:24:32;;;;;;;16.60;10.93;;;;;;;-0.52;74.99;100870.83;1771506;80;21168;-68
2020/12/11 01:27:00;;;;;;;17.02;9.95;;;;;;;-0.54;74.95;100873.46;1823170;78;21674;-68
2020/12/11 01:29:28;;;;;;;18.40;11.12;;;;;;;-0.55;74.95;100868.31;1769894;78;21056;-68
2020/12/11 01:31:58;;;;;;;20.65;11.33;;;;;;;-0.57;74.95;100867.52;1782439;78;21065;-68
2020/12/11 01:34:26;;;;;;;15.78;9.40;;;;;;;-0.57;74.96;100867.52;1793233;78;21891;-68
2020/12/11 01:36:55;;;;;;;23.50;12.30;;;;;;;-0.60;74.88;100864.53;1790402;79;21073;-68
2020/12/11 01:39:22;;;;;;;18.02;10.75;;;;;;;-0.62;74.82;100859.38;1760636;80;21117;-68
2020/12/11 01:41:50;;;;;;;16.90;9.30;;;;;;;-0.63;74.78;100859.42;1783908;78;21127;-68
2020/12/11 01:44:18;;;;;;;21.42;11.83;;;;;;;-0.65;74.71;100859.92;1785593;78;21056;-68
2020/12/11 01:46:46;;;;;;;21.62;11.18;;;;;;;-0.69;74.62;100851.79;1792829;78;22124;-68
2020/12/11 01:49:14;;;;;;;18.52;9.98;;;;;;;-0.73;74.54;100858.81;1737748;79;21166;-68
2020/12/11 01:51:43;;;;;;;13.08;8.83;;;;;;;-0.76;74.51;100857.60;1792432;79;21162;-68
2020/12/11 01:54:11;;;;;;;17.07;8.33;;;;;;;-0.79;74.48;100861.99;1763958;80;21239;-69
2020/12/11 01:56:47;;;;;;;20.08;9.55;;;;;;;-0.82;74.43;100849.11;1773168;80;21059;-68
2020/12/11 01:59:19;;;;;;;17.80;9.35;;;;;;;-0.87;74.35;100851.80;1752697;80;21589;-69
2020/12/11 02:01:48;;;;;;;17.90;10.40;;;;;;;-0.92;74.36;100848.48;1762535;80;21539;-69
2020/12/11 02:04:16;;;;;;;17.48;10.13;;;;;;;-0.95;74.35;100845.98;1765573;80;21049;-68
2020/12/11 02:06:44;;;;;;;18.95;10.58;;;;;;;-0.99;74.30;100839.15;1763934;79;21056;-69
2020/12/11 02:09:12;;;;;;;18.73;10.53;;;;;;;-1.03;74.30;100841.42;1770476;80;21173;-69
2020/12/11 02:11:40;;;;;;;21.07;10.65;;;;;;;-1.08;74.31;100838.92;1740770;81;22140;-68
2020/12/11 02:14:10;;;;;;;15.65;8.90;;;;;;;-1.09;74.32;100841.56;1770262;80;21497;-68
2020/12/11 02:16:39;;;;;;;21.75;10.75;;;;;;;-1.12;74.31;100838.61;1764092;80;21197;-69
2020/12/11 02:19:07;;;;;;;19.80;9.53;;;;;;;-1.16;74.31;100842.14;1770917;81;22409;-68
2020/12/11 02:21:35;;;;;;;17.67;10.53;;;;;;;-1.20;74.27;100837.48;1770991;81;21065;-68
2020/12/11 02:24:04;;;;;;;19.12;10.82;;;;;;;-1.22;74.29;100833.23;1751386;81;21944;-70
2020/12/11 02:26:33;;;;;;;15.60;9.05;;;;;;;-1.22;74.27;100833.23;1745248;81;21160;-69
2020/12/11 02:29:01;;;;;;;21.70;11.12;;;;;;;-1.26;74.23;100827.25;1768661;79;21160;-68
2020/12/11 02:31:29;;;;;;;15.68;9.38;;;;;;;-1.30;74.19;100826.92;1772281;79;21091;-68
2020/12/11 02:33:58;;;;;;;18.10;10.35;;;;;;;-1.34;74.19;100828.34;1760503;79;21207;-68
2020/12/11 02:36:26;;;;;;;13.98;8.60;;;;;;;-1.37;74.13;100837.02;1762404;80;22087;-68
2020/12/11 02:38:53;;;;;;;18.27;9.38;;;;;;;-1.41;74.13;100831.52;1771643;80;21179;-68
2020/12/11 02:41:21;;;;;;;19.70;10.45;;;;;;;-1.45;74.07;100834.63;1770686;80;21129;-68
2020/12/11 02:43:49;;;;;;;11.00;6.70;;;;;;;-1.47;74.04;100835.52;1767984;80;21172;-68
2020/12/11 02:46:17;;;;;;;19.62;10.85;;;;;;;-1.49;74.06;100831.67;1772192;80;21394;-68
2020/12/11 02:48:45;;;;;;;18.62;9.00;;;;;;;-1.48;74.05;100831.23;1807009;78;21900;-68
2020/12/11 02:51:12;;;;;;;18.62;9.98;;;;;;;-1.53;74.09;100814.52;1781203;80;21117;-68
2020/12/11 02:53:41;;;;;;;20.10;10.48;;;;;;;-1.55;74.12;100821.44;1796498;79;21129;-68
2020/12/11 02:56:09;;;;;;;19.50;9.80;;;;;;;-1.57;74.15;100831.44;1788131;78;21096;-68
2020/12/11 02:58:37;;;;;;;19.42;11.03;;;;;;;-1.60;74.17;100823.75;1783265;78;21205;-68
2020/12/11 03:01:05;;;;;;;19.30;11.15;;;;;;;-1.62;74.20;100831.55;1786655;78;21780;-67
2020/12/11 03:03:32;;;;;;;16.27;9.80;;;;;;;-1.63;74.22;100832.89;1768675;79;21136;-68
2020/12/11 03:06:00;;;;;;;17.15;10.25;;;;;;;-1.63;74.22;100824.67;1773748;80;21157;-68
2020/12/11 03:08:28;;;;;;;16.45;9.13;;;;;;;-1.64;74.15;100820.39;1751089;80;21086;-68
2020/12/11 03:10:56;;;;;;;18.30;10.18;;;;;;;-1.67;74.09;100821.72;1742913;82;21089;-68
2020/12/11 03:13:23;;;;;;;19.50;11.48;;;;;;;-1.69;74.11;100822.66;1736151;81;22062;-68
2020/12/11 03:15:52;;;;;;;15.60;8.93;;;;;;;-1.71;74.06;100821.84;1803024;78;21134;-68
2020/12/11 03:18:20;;;;;;;18.32;10.43;;;;;;;-1.75;74.06;100819.73;1766627;78;21129;-68
2020/12/11 03:20:49;;;;;;;15.25;8.78;;;;;;;-1.79;74.06;100824.59;1797015;78;21057;-68
2020/12/11 03:23:17;;;;;;;19.25;11.30;;;;;;;-1.82;74.04;100822.08;1789063;80;21157;-68
2020/12/11 03:25:45;;;;;;;18.12;9.28;;;;;;;-1.86;74.05;100819.97;1782337;80;21965;-69
2020/12/11 03:28:12;;;;;;;19.10;10.32;;;;;;;-1.86;74.05;100801.00;1790176;78;21197;-68
2020/12/11 03:30:40;;;;;;;19.20;10.32;;;;;;;-1.90;74.04;100809.73;1797735;78;21313;-68
2020/12/11 03:33:08;;;;;;;17.42;9.13;;;;;;;-1.95;74.05;100807.22;1793372;78;21057;-68
2020/12/11 03:35:36;;;;;;;15.53;9.65;;;;;;;-1.97;74.09;100803.83;1782225;79;21076;-68
2020/12/11 03:38:04;;;;;;;15.30;8.93;;;;;;;-1.99;74.10;100810.77;1788686;78;21952;-69
2020/12/11 03:40:32;;;;;;;15.60;8.50;;;;;;;-1.99;74.11;100809.92;1798832;79;21145;-68
2020/12/11 03:43:00;;;;;;;16.70;8.58;;;;;;;-2.00;74.17;100816.84;1796055;78;21150;-68
2020/12/11 03:45:28;;;;;;;14.55;8.85;;;;;;;-2.04;74.20;100800.50;1771887;79;21075;-68
2020/12/11 03:47:56;;;;;;;15.48;9.48;;;;;;;-2.06;74.23;100809.19;1802638;78;21098;-68
2020/12/11 03:50:24;;;;;;;14.70;9.00;;;;;;;-2.06;74.24;100810.04;1797406;78;22077;-68
2020/12/11 03:52:51;;;;;;;16.82;9.30;;;;;;;-2.07;74.31;100805.75;1761123;80;21192;-68
2020/12/11 03:55:19;;;;;;;19.32;10.80;;;;;;;-2.08;74.37;100814.84;1767926;81;21081;-68
2020/12/11 03:57:47;;;;;;;18.95;10.65;;;;;;;-2.09;74.41;100819.61;1765013;81;21085;-69
2020/12/11 04:00:15;;;;;;;20.17;10.65;;;;;;;-2.10;74.44;100814.88;1791028;78;21149;-68
2020/12/11 04:02:42;;;;;;;20.23;10.30;;;;;;;-2.11;74.51;100811.03;1760333;80;21901;-68
2020/12/11 04:05:10;;;;;;;23.12;11.45;;;;;;;-2.11;74.55;100820.95;1758334;81;21112;-68
2020/12/11 04:07:38;;;;;;;17.32;9.55;;;;;;;-2.13;74.56;100817.52;1796126;78;21056;-68
2020/12/11 04:10:06;;;;;;;14.13;7.83;;;;;;;-2.11;74.59;100826.13;1795978;78;21081;-68
2020/12/11 04:12:34;;;;;;;16.00;8.35;;;;;;;-2.11;74.61;100835.62;1765160;80;21122;-68
2020/12/11 04:15:02;;;;;;;21.75;11.25;;;;;;;-2.12;74.63;100839.09;1766538;80;22952;-69
2020/12/11 04:17:30;;;;;;;20.02;10.70;;;;;;;-2.13;74.60;100832.19;1819875;78;21157;-68
2020/12/11 04:19:58;;;;;;;17.73;10.58;;;;;;;-2.15;74.63;100837.40;1802225;78;21130;-68
2020/12/11 04:22:25;;;;;;;16.87;8.45;;;;;;;-2.16;74.63;100831.81;1766337;80;21064;-68
2020/12/11 04:24:53;;;;;;;19.07;10.75;;;;;;;-2.16;74.64;100836.14;1773136;80;21129;-68
2020/12/11 04:27:21;;;;;;;19.37;10.30;;;;;;;-2.16;74.60;100832.26;1773851;80;22742;-68
2020/12/11 04:29:49;;;;;;;23.57;11.93;;;;;;;-2.18;74.60;100837.47;1801844;78;21065;-70
2020/12/11 04:32:16;;;;;;;15.75;9.13;;;;;;;-2.18;74.58;100833.59;1763357;80;21074;-68
2020/12/11 04:34:44;;;;;;;18.25;10.58;;;;;;;-2.17;74.60;100835.73;1788110;78;21639;-68
2020/12/11 04:37:15;;;;;;;18.45;10.18;;;;;;;-2.18;74.60;100831.00;1765771;80;21136;-68
2020/12/11 04:39:42;;;;;;;21.17;11.45;;;;;;;-2.19;74.58;100832.33;1806551;78;22914;-69
2020/12/11 04:42:12;;;;;;;15.90;8.75;;;;;;;-2.21;74.62;100842.72;1789458;78;21434;-69
2020/12/11 04:44:40;;;;;;;18.02;10.43;;;;;;;-2.20;74.68;100839.69;1795474;78;21472;-68
2020/12/11 04:47:08;;;;;;;18.70;9.83;;;;;;;-2.21;74.70;100846.59;1789758;80;21129;-68
2020/12/11 04:49:36;;;;;;;15.70;9.10;;;;;;;-2.23;74.75;100841.02;1787666;78;21150;-68
2020/12/11 04:52:05;;;;;;;22.02;10.82;;;;;;;-2.25;74.75;100842.34;1777319;78;21890;-68
2020/12/11 04:54:37;;;;;;;18.17;10.80;;;;;;;-2.27;74.75;100841.97;1781083;78;21528;-68
2020/12/11 04:57:09;;;;;;;23.73;12.18;;;;;;;-2.28;74.79;100841.56;1770597;80;21053;-69
2020/12/11 04:59:37;;;;;;;17.73;10.20;;;;;;;-2.31;74.83;100845.92;1752593;80;21149;-68
2020/12/11 05:02:12;;;;;;;19.85;10.98;;;;;;;-2.34;74.87;100838.20;1758621;80;21499;-69
2020/12/11 05:04:40;;;;;;;21.68;11.73;;;;;;;-2.35;74.87;100842.96;1742321;81;21908;-69
2020/12/11 05:07:08;;;;;;;19.92;10.95;;;;;;;-2.37;74.91;100846.47;1749196;81;21075;-69
2020/12/11 05:09:36;;;;;;;21.15;10.93;;;;;;;-2.39;74.91;100845.66;1762051;81;21153;-69
2020/12/11 05:12:12;;;;;;;21.10;11.43;;;;;;;-2.42;74.86;100845.24;1755417;80;21137;-68
2020/12/11 05:14:40;;;;;;;20.12;10.15;;;;;;;-2.46;74.86;100841.47;1756221;80;21114;-68
2020/12/11 05:17:08;;;;;;;18.32;10.98;;;;;;;-2.48;74.85;100839.36;1759063;80;21970;-68
2020/12/11 05:19:52;;;;;;;19.32;9.30;;;;;;;-2.51;74.82;100841.97;1760029;81;21081;-69
2020/12/11 05:22:22;;;;;;;22.40;12.07;;;;;;;-2.53;74.84;100833.40;1762245;81;21133;-70
2020/12/11 05:24:52;;;;;;;22.02;11.55;;;;;;;-2.57;74.87;100840.37;1762333;80;21168;-68
2020/12/11 05:27:36;;;;;;;18.48;10.25;;;;;;;-2.58;74.87;100842.55;1760429;81;21160;-68
2020/12/11 05:30:18;;;;;;;11.97;6.53;;;;;;;-2.62;74.92;100847.34;1757328;80;22062;-68
2020/12/11 05:32:55;;;;;;;21.20;11.85;;;;;;;-2.65;74.99;100851.28;1750670;80;21138;-68
2020/12/11 05:35:29;;;;;;;21.02;10.35;;;;;;;-2.67;75.04;100853.05;1758486;80;21118;-70
2020/12/11 05:38:07;;;;;;;22.65;10.55;;;;;;;-2.68;75.11;100851.35;1775006;80;21070;-67
2020/12/11 05:40:39;;;;;;;19.05;8.90;;;;;;;-2.73;75.12;100858.31;1754245;80;21062;-68
2020/12/11 05:43:17;;;;;;;17.23;9.95;;;;;;;-2.76;75.11;100859.23;1750975;81;21518;-68
2020/12/11 05:45:58;;;;;;;27.15;12.85;;;;;;;-2.79;75.05;100859.30;1760511;80;21085;-67
2020/12/11 05:48:38;;;;;;;22.48;13.05;;;;;;;-2.82;75.04;100866.23;1729180;83;21056;-67
2020/12/11 05:51:14;;;;;;;21.85;12.43;;;;;;;-2.86;74.96;100874.92;1735934;81;21065;-68
2020/12/11 05:53:42;;;;;;;24.90;12.13;;;;;;;-2.90;74.96;100865.05;1760887;81;21109;-68
2020/12/11 05:56:10;;;;;;;18.85;10.18;;;;;;;-2.92;74.95;100871.55;1762840;81;22062;-68
2020/12/11 05:58:39;;;;;;;17.73;10.25;;;;;;;-2.96;74.90;100871.64;1762045;81;21172;-69
2020/12/11 06:01:07;;;;;;;20.45;11.63;;;;;;;-3.02;74.85;100865.27;1731799;80;21471;-69
2020/12/11 06:03:35;;;;;;;21.23;11.38;;;;;;;-3.05;74.87;100861.45;1763857;80;21485;-68
2020/12/11 06:06:03;;;;;;;22.27;12.30;;;;;;;-3.09;74.89;100863.20;1762875;81;21582;-69
2020/12/11 06:08:31;;;;;;;22.87;11.85;;;;;;;-3.09;74.90;100862.34;1733081;81;21904;-68
2020/12/11 06:10:59;;;;;;;16.62;9.55;;;;;;;-3.09;74.90;100853.31;1728907;80;21096;-69
2020/12/11 06:13:37;;;;;;;19.48;10.93;;;;;;;-3.10;74.89;100863.23;1703837;81;21085;-70
2020/12/11 06:16:05;;;;;;;20.08;11.30;;;;;;;-3.14;74.84;100857.27;1759773;80;21053;-70
2020/12/11 06:18:34;;;;;;;22.10;13.13;;;;;;;-3.16;74.86;100856.45;1759572;80;21101;-70
2020/12/11 06:21:02;;;;;;;14.73;9.43;;;;;;;-3.17;74.88;100857.33;1789991;80;22111;-70
2020/12/11 06:23:31;;;;;;;23.52;12.30;;;;;;;-3.18;74.92;100848.73;1789937;80;21160;-70
2020/12/11 06:26:01;;;;;;;25.23;12.93;;;;;;;-3.18;74.95;100841.42;1758198;80;21066;-70
2020/12/11 06:28:39;;;;;;;23.27;12.23;;;;;;;-3.19;74.97;100850.87;1788325;80;21042;-70
2020/12/11 06:31:15;;;;;;;20.85;11.97;;;;;;;-3.18;75.01;100852.60;1757219;81;21810;-70
2020/12/11 06:33:46;;;;;;;21.60;11.63;;;;;;;-3.15;75.08;100855.56;1787528;80;22112;-71
2020/12/11 06:36:15;;;;;;;22.32;12.53;;;;;;;-3.14;75.05;100852.10;1771530;79;21112;-69
2020/12/11 06:38:55;;;;;;;25.05;13.72;;;;;;;-3.11;75.10;100848.61;1735769;81;21119;-68
2020/12/11 06:41:34;;;;;;;18.05;10.08;;;;;;;-3.10;75.10;100846.44;1765390;80;21094;-70
2020/12/11 06:44:12;;;;;;;20.37;11.50;;;;;;;-3.13;75.06;100840.89;1784712;80;21105;-69
2020/12/11 06:46:40;;;;;;;18.62;10.90;;;;;;;-3.17;75.09;100841.83;1789646;80;22062;-69
2020/12/11 06:49:19;;;;;;;22.52;11.80;;;;;;;-3.19;75.12;100837.09;1779262;80;21096;-68
2020/12/11 06:51:53;;;;;;;14.70;8.83;;;;;;;-3.22;75.16;100839.73;1789678;80;21070;-66
2020/12/11 06:54:27;;;;;;;21.55;12.93;;;;;;;-3.23;75.19;100835.45;1764562;81;21132;-67
2020/12/11 06:56:56;;;;;;;21.52;10.93;;;;;;;-3.25;75.24;100837.21;1775448;79;21075;-67
2020/12/11 06:59:37;;;;;;;20.17;11.12;;;;;;;-3.23;75.27;100832.87;1759294;81;23095;-67
2020/12/11 07:04:49;;;;;;;18.05;10.20;;;;;;;-3.19;75.24;100837.09;1888573;76;27453;-66
2020/12/11 07:10:05;;;;;;;22.17;12.53;;;;;;;-3.20;75.16;100832.81;1888499;76;28069;-67
2020/12/11 07:12:33;;;;;;;22.32;11.00;;;;;;;-3.26;75.16;100835.07;1747450;80;21069;-67
2020/12/11 07:15:15;;;;;;;18.73;10.55;;;;;;;-3.29;75.12;100832.52;1760265;81;21886;-67
2020/12/11 07:17:42;;;;;;;25.23;13.88;;;;;;;-3.31;75.05;100824.38;1745732;81;21145;-69
2020/12/11 07:20:11;;;;;;;20.92;12.10;;;;;;;-3.32;75.08;100827.84;1757833;77;21153;-67
2020/12/11 07:22:39;;;;;;;18.37;10.35;;;;;;;-3.32;75.11;100827.84;1828129;77;21105;-69
2020/12/11 07:25:08;;;;;;;20.77;11.18;;;;;;;-3.33;75.10;100819.69;1821281;77;21042;-68
2020/12/11 07:27:35;;;;;;;21.52;11.28;;;;;;;-3.33;75.08;100821.83;1774275;79;22028;-67
2020/12/11 07:30:03;;;;;;;18.80;11.05;;;;;;;-3.34;75.06;100827.88;1835592;77;21097;-70
2020/12/11 07:32:31;;;;;;;22.77;12.33;;;;;;;-3.35;75.01;100831.34;1831195;77;21122;-68
2020/12/11 07:34:58;;;;;;;27.02;14.23;;;;;;;-3.36;74.92;100817.16;1826368;77;21145;-69
2020/12/11 07:37:26;;;;;;;21.12;12.43;;;;;;;-3.36;74.94;100826.20;1839023;77;21160;-68
2020/12/11 07:39:54;;;;;;;22.52;12.45;;;;;;;-3.35;74.91;100811.11;1815743;77;21952;-68
2020/12/11 07:42:24;;;;;;;26.33;14.43;;;;;;;-3.36;74.91;100818.02;1815498;79;21148;-67
2020/12/11 07:44:51;;;;;;;29.45;14.80;;;;;;;-3.36;74.87;100819.30;1723416;80;21117;-67
2020/12/11 07:47:19;;;;;;;18.45;10.88;;;;;;;-3.36;74.90;100818.45;1816265;79;21161;-68
2020/12/11 07:49:48;;;;;;;19.35;13.13;;;;;;;-3.36;74.88;100820.59;1798534;78;21157;-67
2020/12/11 07:52:22;;;;;;;19.82;11.08;;;;;;;-3.36;74.90;100818.45;1838603;77;23060;-67
2020/12/11 07:54:50;;;;;;;21.75;13.70;;;;;;;-3.37;74.85;100815.45;1838585;78;21094;-68
2020/12/11 07:57:22;;;;;;;19.07;11.85;;;;;;;-3.44;74.77;100814.69;1838783;78;21177;-68
2020/12/11 08:00:06;;;;;;;19.70;11.22;;;;;;;-3.49;74.90;100812.16;1838783;78;21121;-68
2020/12/11 08:02:35;;;;;;;16.80;10.05;;;;;;;-3.49;74.90;100801.83;1847386;77;21053;-68
2020/12/11 08:05:06;;;;;;;19.98;11.68;;;;;;;-3.50;74.93;100808.31;1849738;77;21868;-67
2020/12/11 08:07:34;;;;;;;31.40;14.47;;;;;;;-3.47;74.94;100805.27;1818726;77;21053;-67
2020/12/11 08:10:13;;;;;;;24.07;11.90;;;;;;;-3.44;74.94;100804.80;1849569;77;21406;-67
2020/12/11 08:12:41;;;;;;;20.02;11.05;;;;;;;-3.40;74.96;100807.73;1849714;77;21167;-67
2020/12/11 08:15:12;;;;;;;23.10;11.95;;;;;;;-3.38;74.96;100797.78;1849650;77;21102;-66
2020/12/11 08:17:42;;;;;;;26.45;13.93;;;;;;;-3.40;74.89;100797.41;1849710;77;22004;-68
2020/12/11 08:20:10;;;;;;;19.05;11.00;;;;;;;-3.43;74.84;100791.00;1849348;77;21133;-67
2020/12/11 08:22:40;;;;;;;23.50;12.82;;;;;;;-3.44;74.93;100792.73;1814390;77;21153;-67
2020/12/11 08:25:21;;;;;;;25.00;12.37;;;;;;;-3.44;74.98;100790.59;1839896;77;21160;-66
2020/12/11 08:27:50;;;;;;;23.67;14.40;;;;;;;-3.42;75.03;100791.41;1832956;77;21196;-67
2020/12/11 08:30:19;;;;;;;22.77;13.20;;;;;;;-3.43;74.98;100790.56;1847942;77;22049;-68
2020/12/11 08:32:48;;;;;;;22.42;13.55;;;;;;;-3.42;75.00;100803.03;1822445;77;21533;-67
2020/12/11 08:35:22;;;;;;;24.87;14.47;;;;;;;-3.42;75.03;100792.27;1828106;77;21046;-68
2020/12/11 08:37:56;;;;;;;31.02;17.65;;;;;;;-3.40;75.07;100792.23;1845185;77;21101;-66
2020/12/11 08:40:27;;;;;;;29.50;16.23;;;;;;;-3.39;75.09;100796.08;1847186;77;21492;-67
2020/12/11 08:49:05;;;;;;;19.50;12.30;;;;;;;-3.43;75.05;100793.59;1808090;77;21108;-68
2020/12/11 08:51:27;;;;;;;20.00;12.00;;;;;;;-3.44;75.00;100794.47;1847116;77;21498;-68
2020/12/11 08:53:56;;;;;;;27.65;11.90;;;;;;;-3.52;74.98;100778.64;1832023;76;21027;-70
2020/12/11 08:56:26;;;;;;;21.10;14.25;;;;;;;-3.54;75.04;100779.11;1833746;77;21883;-67
2020/12/11 08:58:55;;;;;;;21.55;12.93;;;;;;;-3.54;75.06;100770.08;1825053;76;21033;-67
2020/12/11 09:01:23;;;;;;;20.68;11.75;;;;;;;-3.53;75.10;100775.65;1832963;76;21077;-68
2020/12/11 09:03:53;;;;;;;19.98;13.13;;;;;;;-3.51;75.14;100776.47;1841538;77;21030;-68
2020/12/11 09:06:21;;;;;;;20.20;13.03;;;;;;;-3.52;75.10;100772.19;1833956;77;21121;-69
2020/12/11 09:08:50;;;;;;;21.25;13.48;;;;;;;-3.54;75.12;100766.20;1822240;77;22802;-67
2020/12/11 09:11:21;;;;;;;22.85;13.90;;;;;;;-3.57;75.13;100759.80;1848794;77;21105;-68
2020/12/11 09:13:50;;;;;;;17.98;11.45;;;;;;;-3.58;75.17;100761.09;1840153;77;21443;-69
2020/12/11 09:16:18;;;;;;;18.55;12.40;;;;;;;-3.57;75.20;100754.64;1822980;78;21184;-69
2020/12/11 09:18:46;;;;;;;20.43;11.97;;;;;;;-3.54;75.22;100764.06;1830100;77;21350;-68
2020/12/11 09:21:14;;;;;;;20.27;12.40;;;;;;;-3.55;75.23;100757.20;1848831;77;22814;-67
2020/12/11 09:23:43;;;;;;;25.27;14.35;;;;;;;-3.55;75.26;100753.32;1819100;77;21054;-69
2020/12/11 09:26:12;;;;;;;27.30;14.85;;;;;;;-3.56;75.27;100761.95;1848890;77;21249;-69
2020/12/11 09:28:43;;;;;;;24.18;14.70;;;;;;;-3.56;75.34;100753.77;1848431;77;21165;-69
2020/12/11 09:31:09;;;;;;;21.50;12.88;;;;;;;-3.54;75.37;100752.44;1821848;77;21110;-68
2020/12/11 09:33:40;;;;;;;20.62;12.70;;;;;;;-3.49;75.40;100741.14;1838923;77;21871;-67
2020/12/11 09:36:07;;;;;;;25.08;13.55;;;;;;;-3.47;75.42;100740.70;1843756;77;21070;-68
2020/12/11 09:38:36;;;;;;;19.50;11.50;;;;;;;-3.46;75.41;100735.95;1824524;77;21052;-68
2020/12/11 09:41:05;;;;;;;25.65;14.40;;;;;;;-3.43;75.39;100729.88;1828470;77;21077;-68
2020/12/11 09:48:46;;;;;;;23.47;14.50;;;;;;;-3.40;75.32;100728.97;1833520;77;21537;-67
2020/12/11 09:56:25;;;;;;;22.02;12.60;;;;;;;-3.40;75.37;100713.47;1802755;79;21111;-68
2020/12/11 09:58:58;;;;;;;20.90;13.38;;;;;;;-3.40;75.38;100710.89;1827550;76;22166;-68
2020/12/11 10:01:32;;;;;;;28.25;16.05;;;;;;;-3.42;75.41;100704.46;1833471;77;21221;-68
2020/12/11 10:03:58;;;;;;;26.90;17.17;;;;;;;-3.40;75.43;100708.30;1746115;81;21071;-69
2020/12/11 10:06:26;;;;;;;27.80;14.85;;;;;;;-3.41;75.37;100710.48;1817625;77;21453;-67
2020/12/11 10:08:54;;;;;;;19.30;11.83;;;;;;;-3.41;75.41;100707.89;1819342;78;21154;-68
2020/12/11 10:11:24;;;;;;;23.05;11.43;;;;;;;-3.39;75.43;100703.55;1810657;79;21822;-69
2020/12/11 10:14:05;;;;;;;16.75;10.82;;;;;;;-3.41;75.33;100711.33;1841389;77;21097;-68
2020/12/11 10:16:22;;;;;;;20.97;12.15;;;;;;;-3.46;75.37;100702.38;1841211;77;21110;-69
2020/12/11 10:18:51;;;;;;;16.02;9.93;;;;;;;-3.48;75.39;100701.53;1843510;77;21109;-68
2020/12/11 10:21:19;;;;;;;15.63;11.08;;;;;;;-3.48;75.41;100707.14;1840983;77;21153;-68
2020/12/11 10:23:47;;;;;;;17.65;12.13;;;;;;;-3.50;75.42;100705.02;1834120;77;22002;-68
2020/12/11 10:26:16;;;;;;;20.43;13.65;;;;;;;-3.50;75.45;100714.06;1818142;77;21146;-69
2020/12/11 10:28:46;;;;;;;19.98;12.85;;;;;;;-3.49;75.47;100706.72;1826130;77;21115;-70
2020/12/11 10:31:16;;;;;;;19.12;12.30;;;;;;;-3.46;75.44;100713.16;1828043;77;21109;-69
2020/12/11 10:33:45;;;;;;;16.05;11.18;;;;;;;-3.49;75.45;100720.48;1823952;77;21161;-69
2020/12/11 10:36:14;;;;;;;22.05;12.73;;;;;;;-3.50;75.47;100707.17;1836542;77;22718;-69
2020/12/11 10:38:41;;;;;;;16.00;11.40;;;;;;;-3.51;75.49;100705.47;1826854;77;21125;-68
2020/12/11 10:41:09;;;;;;;26.45;15.10;;;;;;;-3.48;75.51;100714.87;1816527;77;21121;-67
2020/12/11 10:43:38;;;;;;;23.45;14.33;;;;;;;-3.48;75.47;100704.11;1835843;77;21133;-68
2020/12/11 10:46:09;;;;;;;20.37;12.60;;;;;;;-3.48;75.47;100703.27;1820932;77;21550;-69
2020/12/11 10:48:37;;;;;;;25.23;14.93;;;;;;;-3.49;75.48;100692.08;1819065;77;22028;-68
2020/12/11 10:51:05;;;;;;;25.60;14.18;;;;;;;-3.50;75.50;100689.09;1842783;77;21066;-69
2020/12/11 10:53:34;;;;;;;22.85;13.13;;;;;;;-3.49;75.55;100692.52;1843420;77;21078;-69
2020/12/11 10:56:05;;;;;;;19.52;12.80;;;;;;;-3.47;75.58;100690.35;1835110;77;21169;-68
2020/12/11 10:58:33;;;;;;;23.60;12.45;;;;;;;-3.46;75.56;100686.89;1842772;77;21114;-68
2020/12/11 11:01:05;;;;;;;20.60;14.00;;;;;;;-3.47;75.59;100678.73;1826563;77;21997;-68
2020/12/11 11:03:34;;;;;;;20.82;13.18;;;;;;;-3.46;75.60;100681.73;1818596;77;21565;-69
2020/12/11 11:06:11;;;;;;;20.72;12.82;;;;;;;-3.41;75.63;100683.36;1843068;77;21094;-68
2020/12/11 11:11:11;;;;;;;24.75;13.72;;;;;;;-3.36;75.64;100673.38;1838647;77;21105;-69
2020/12/11 11:32:46;;;;;;;22.70;14.60;;;;;;;-2.78;75.33;100650.75;1910204;74;28919;-67
2020/12/11 11:35:14;;;;;;;19.57;13.45;;;;;;;-2.80;75.04;100651.20;1862868;74;21462;-68
2020/12/11 11:37:42;;;;;;;22.73;13.83;;;;;;;-2.89;75.04;100654.84;1856431;74;21875;-70
2020/12/11 11:40:10;;;;;;;25.17;16.45;;;;;;;-2.94;75.03;100648.46;1859685;76;21158;-70
2020/12/11 11:42:38;;;;;;;22.32;14.78;;;;;;;-2.99;75.02;100642.95;1854332;77;21051;-71
2020/12/11 11:45:08;;;;;;;25.15;16.12;;;;;;;-3.01;75.05;100643.44;1854299;77;22153;-70
2020/12/11 11:47:40;;;;;;;19.32;12.95;;;;;;;-3.02;75.06;100652.92;1854390;76;21050;-69
2020/12/11 11:53:01;;;;;;;23.38;13.72;;;;;;;-3.00;75.14;100638.23;1887000;74;27277;-73
2020/12/11 11:55:28;;;;;;;27.48;14.90;;;;;;;-3.04;75.19;100650.81;1821343;77;21107;-71
2020/12/11 11:57:56;;;;;;;25.37;15.95;;;;;;;-3.03;75.20;100652.95;1810473;78;22935;-72
2020/12/11 12:00:24;;;;;;;24.32;15.30;;;;;;;-3.02;75.25;100648.20;1812860;78;21115;-71
2020/12/11 12:02:52;;;;;;;20.70;13.45;;;;;;;-3.02;75.26;100655.51;1766583;80;21113;-72
2020/12/11 12:05:20;;;;;;;23.00;12.47;;;;;;;-3.01;75.30;100652.48;1762937;80;21078;-71
2020/12/11 12:07:48;;;;;;;23.02;15.63;;;;;;;-3.01;75.29;100655.91;1790578;80;21098;-71